Time;durP1;ratioP1;P1;durP2;ratioP2;P2;SDS_P1;SDS_P2;PMS_P1;PMS_P2;Temp;Humidity;BMP_temperature;BMP_pressure;BME280_temperature;BME280_humidity;BME280_pressure;Samples;Min_cycle;Max_cycle;Signal;HPM_P1;HPM_P2
2021/04/10 00:00:38;;;;;;;20.07;10.27;;;7.00;63.70;;;;;;5043577;28;20217;-68
2021/04/10 00:03:06;;;;;;;16.40;9.43;;;6.90;63.70;;;;;;5040111;28;20641;-67
2021/04/10 00:05:33;;;;;;;16.23;9.07;;;7.00;63.90;;;;;;5043226;28;20345;-67
2021/04/10 00:07:59;;;;;;;16.60;9.03;;;6.90;63.90;;;;;;5042792;28;20492;-68
2021/04/10 00:10:29;;;;;;;16.17;8.93;;;6.90;64.00;;;;;;5041422;28;20685;-68
2021/04/10 00:12:55;;;;;;;15.73;9.20;;;6.90;64.10;;;;;;5040434;28;20219;-68
2021/04/10 00:15:22;;;;;;;18.87;9.50;;;7.00;64.30;;;;;;5044565;28;20229;-67
2021/04/10 00:17:49;;;;;;;15.60;9.77;;;6.90;64.40;;;;;;5045020;28;20214;-66
2021/04/10 00:20:19;;;;;;;15.97;8.67;;;6.90;64.50;;;;;;5043184;28;20201;-68
2021/04/10 00:22:46;;;;;;;13.53;8.80;;;6.90;64.60;;;;;;5045104;28;20215;-68
2021/04/10 00:25:14;;;;;;;18.17;9.73;;;6.90;64.70;;;;;;5042222;28;20201;-68
2021/04/10 00:27:40;;;;;;;17.23;9.23;;;6.90;64.80;;;;;;5044827;28;20220;-67
2021/04/10 00:30:10;;;;;;;17.63;9.23;;;6.90;65.00;;;;;;5044046;28;20658;-68
2021/04/10 00:32:37;;;;;;;16.00;8.93;;;6.90;65.00;;;;;;5045051;28;20267;-67
2021/04/10 00:35:05;;;;;;;15.93;8.47;;;6.90;65.20;;;;;;5045209;28;20662;-67
2021/04/10 00:37:32;;;;;;;15.37;8.83;;;6.90;65.30;;;;;;5043359;28;20208;-70
2021/04/10 00:39:58;;;;;;;17.60;9.20;;;6.90;65.40;;;;;;5043465;28;20202;-66
2021/04/10 00:42:25;;;;;;;18.60;9.03;;;6.90;65.50;;;;;;5045392;28;20212;-68
2021/04/10 00:44:51;;;;;;;16.80;9.20;;;6.90;65.60;;;;;;5045245;28;20219;-67
2021/04/10 00:47:18;;;;;;;16.80;9.10;;;6.90;65.60;;;;;;5041935;28;20252;-69
2021/04/10 00:49:44;;;;;;;16.03;9.27;;;6.90;65.80;;;;;;5042629;28;20217;-67
2021/04/10 00:52:12;;;;;;;18.07;9.67;;;6.90;65.80;;;;;;5042493;28;20201;-66
2021/04/10 00:54:40;;;;;;;13.93;8.87;;;6.90;65.90;;;;;;5045522;28;20328;-68
2021/04/10 00:57:07;;;;;;;15.87;9.37;;;6.90;66.10;;;;;;5046035;28;20202;-67
2021/04/10 00:59:33;;;;;;;16.60;9.27;;;6.90;66.30;;;;;;5046387;28;20337;-67
2021/04/10 01:02:02;;;;;;;15.73;9.37;;;6.80;66.40;;;;;;5044323;28;20216;-69
2021/04/10 01:04:29;;;;;;;15.40;8.67;;;6.80;66.60;;;;;;5042663;28;20596;-68
2021/04/10 01:06:55;;;;;;;22.40;9.97;;;6.80;66.70;;;;;;5043209;28;20284;-69
2021/04/10 01:09:22;;;;;;;18.37;9.27;;;6.80;66.90;;;;;;5040629;28;20205;-69
2021/04/10 01:11:58;;;;;;;15.93;9.23;;;6.80;67.00;;;;;;5041281;28;20613;-68
2021/04/10 01:14:33;;;;;;;18.63;9.07;;;6.90;67.20;;;;;;5039961;28;20652;-69
2021/04/10 01:17:04;;;;;;;15.40;9.13;;;6.80;67.90;;;;;;5041590;28;20209;-69
2021/04/10 01:19:55;;;;;;;15.20;8.70;;;6.80;67.30;;;;;;5043583;28;20333;-69
2021/04/10 01:22:35;;;;;;;14.60;8.40;;;6.80;68.10;;;;;;5041811;28;20746;-69
2021/04/10 01:25:05;;;;;;;16.83;8.37;;;6.80;67.40;;;;;;5042894;28;20312;-68
2021/04/10 01:27:39;;;;;;;16.83;8.43;;;6.80;67.40;;;;;;5039418;28;20232;-70
2021/04/10 01:30:09;;;;;;;15.50;8.90;;;6.80;67.50;;;;;;5046801;28;20206;-68
2021/04/10 01:32:43;;;;;;;14.80;8.67;;;6.80;67.50;;;;;;5040862;28;20616;-69
2021/04/10 01:35:12;;;;;;;15.10;8.87;;;6.80;68.30;;;;;;5040574;28;20271;-67
2021/04/10 01:37:43;;;;;;;17.97;9.03;;;6.90;67.60;;;;;;5041161;28;20218;-68
2021/04/10 01:40:13;;;;;;;17.53;9.23;;;6.80;67.60;;;;;;5039955;28;20247;-69
2021/04/10 01:42:41;;;;;;;16.77;9.50;;;6.80;67.90;;;;;;5040735;28;20774;-68
2021/04/10 01:45:10;;;;;;;16.97;8.63;;;6.70;67.90;;;;;;5042318;28;20308;-69
2021/04/10 01:47:38;;;;;;;15.37;8.33;;;6.80;68.10;;;;;;5039725;28;20302;-69
2021/04/10 01:50:06;;;;;;;17.10;8.67;;;6.80;68.20;;;;;;5040231;28;20231;-70
2021/04/10 01:52:35;;;;;;;19.77;8.80;;;6.80;68.10;;;;;;5041710;28;20212;-68
2021/04/10 01:55:01;;;;;;;15.00;8.80;;;6.80;68.10;;;;;;5040180;28;20760;-69
2021/04/10 01:57:29;;;;;;;14.67;8.80;;;6.80;68.10;;;;;;5039579;28;20210;-70
2021/04/10 01:59:58;;;;;;;14.43;9.50;;;6.80;68.10;;;;;;5040997;28;20213;-68
2021/04/10 02:02:26;;;;;;;17.93;8.87;;;6.80;68.10;;;;;;5044088;28;20213;-69
2021/04/10 02:04:53;;;;;;;15.70;8.97;;;6.80;68.20;;;;;;5042323;28;20578;-69
2021/04/10 02:07:23;;;;;;;15.77;8.80;;;6.80;68.20;;;;;;5041724;28;20216;-68
2021/04/10 02:09:50;;;;;;;14.73;9.00;;;6.80;68.10;;;;;;5041910;28;20210;-70
2021/04/10 02:12:19;;;;;;;13.70;8.47;;;6.80;68.10;;;;;;5038734;28;21132;-69
2021/04/10 02:14:46;;;;;;;14.10;8.47;;;6.80;68.40;;;;;;5043173;28;20241;-68
2021/04/10 02:17:15;;;;;;;15.40;8.53;;;6.80;68.30;;;;;;5040742;28;20289;-68
2021/04/10 02:19:43;;;;;;;15.23;8.47;;;6.80;68.40;;;;;;5042070;28;20260;-69
2021/04/10 02:22:10;;;;;;;14.20;8.20;;;6.70;68.40;;;;;;5043077;28;20205;-69
2021/04/10 02:24:36;;;;;;;17.43;8.90;;;6.70;68.40;;;;;;5042681;28;20252;-70
2021/04/10 02:27:03;;;;;;;14.20;8.67;;;6.70;68.50;;;;;;5043358;28;20206;-68
2021/04/10 02:29:31;;;;;;;14.83;8.17;;;6.70;68.70;;;;;;5040867;28;20214;-68
2021/04/10 02:32:05;;;;;;;14.47;8.43;;;6.70;69.40;;;;;;5042716;28;20216;-68
2021/04/10 02:34:34;;;;;;;17.53;8.63;;;6.60;68.80;;;;;;5041229;28;20585;-69
2021/04/10 02:37:02;;;;;;;15.03;9.17;;;6.60;69.00;;;;;;5041549;28;20732;-69
2021/04/10 02:39:29;;;;;;;14.00;8.20;;;6.60;69.00;;;;;;5042464;28;20828;-69
2021/04/10 02:42:00;;;;;;;13.20;7.80;;;6.60;69.20;;;;;;5040466;28;20202;-68
2021/04/10 02:44:34;;;;;;;17.20;9.30;;;6.50;69.20;;;;;;5040322;28;20202;-69
2021/04/10 02:47:05;;;;;;;13.53;8.50;;;6.60;69.50;;;;;;5040804;28;20214;-67
2021/04/10 02:49:35;;;;;;;13.93;8.60;;;6.50;69.60;;;;;;5040760;28;20206;-68
2021/04/10 02:52:04;;;;;;;14.27;8.17;;;6.50;69.70;;;;;;5041686;28;20213;-70
2021/04/10 02:54:40;;;;;;;18.63;9.00;;;6.50;69.80;;;;;;5041830;28;20233;-69
2021/04/10 02:57:10;;;;;;;17.40;8.90;;;6.50;70.00;;;;;;5041209;28;20936;-69
2021/04/10 02:59:39;;;;;;;16.90;8.37;;;6.50;70.20;;;;;;5039519;28;20198;-68
2021/04/10 03:02:07;;;;;;;19.57;9.03;;;6.40;70.30;;;;;;5040901;28;20202;-68
2021/04/10 03:04:34;;;;;;;14.03;8.43;;;6.50;70.60;;;;;;5041318;28;20604;-68
2021/04/10 03:07:05;;;;;;;13.80;8.70;;;6.40;70.70;;;;;;5040146;28;20210;-69
2021/04/10 03:09:31;;;;;;;14.40;8.67;;;6.40;70.80;;;;;;5037775;28;20310;-70
2021/04/10 03:11:58;;;;;;;16.43;9.90;;;6.40;71.00;;;;;;5040688;28;20213;-67
2021/04/10 03:14:25;;;;;;;19.63;9.67;;;6.30;71.10;;;;;;5039263;28;20252;-69
2021/04/10 03:16:51;;;;;;;13.50;8.27;;;6.30;71.30;;;;;;5038855;28;20241;-71
2021/04/10 03:19:18;;;;;;;14.80;8.30;;;6.30;72.20;;;;;;5042974;28;20217;-69
2021/04/10 03:21:45;;;;;;;11.93;7.73;;;6.30;71.60;;;;;;5040189;28;20551;-68
2021/04/10 03:24:12;;;;;;;16.17;9.00;;;6.30;71.80;;;;;;5042897;28;20210;-70
2021/04/10 03:26:39;;;;;;;15.00;8.07;;;6.30;72.20;;;;;;5040530;28;20603;-70
2021/04/10 03:29:06;;;;;;;15.40;9.07;;;6.20;72.10;;;;;;5040927;28;20213;-70
2021/04/10 03:31:34;;;;;;;13.77;8.30;;;6.20;72.10;;;;;;5039809;28;20205;-69
2021/04/10 03:34:01;;;;;;;19.73;9.10;;;6.20;72.10;;;;;;5042617;28;20234;-70
2021/04/10 03:36:27;;;;;;;17.93;8.90;;;6.20;72.60;;;;;;5039070;28;20248;-68
2021/04/10 03:38:54;;;;;;;15.53;8.80;;;6.20;73.70;;;;;;5039267;28;20212;-69
2021/04/10 03:41:22;;;;;;;16.17;8.87;;;6.20;73.20;;;;;;5037885;28;20206;-69
2021/04/10 03:43:49;;;;;;;17.60;9.03;;;6.20;73.60;;;;;;5040128;28;20215;-69
2021/04/10 03:46:15;;;;;;;15.20;8.10;;;6.20;73.70;;;;;;5037018;28;20321;-69
2021/04/10 03:48:41;;;;;;;17.37;8.10;;;6.20;73.90;;;;;;5037917;28;20206;-69
2021/04/10 03:51:08;;;;;;;14.57;8.77;;;6.20;74.10;;;;;;5042419;28;20229;-68
2021/04/10 03:53:34;;;;;;;14.47;8.30;;;6.10;74.30;;;;;;5043294;28;20354;-69
2021/04/10 03:56:01;;;;;;;13.93;9.13;;;6.10;74.50;;;;;;5046215;28;20201;-69
2021/04/10 03:58:32;;;;;;;17.20;9.70;;;6.10;74.80;;;;;;5043010;28;20538;-70
2021/04/10 04:00:58;;;;;;;15.80;9.27;;;6.10;75.10;;;;;;5043387;28;20209;-69
2021/04/10 04:03:24;;;;;;;14.83;8.90;;;6.10;75.40;;;;;;5042735;28;20216;-68
2021/04/10 04:05:51;;;;;;;16.27;8.47;;;6.00;75.40;;;;;;5042366;28;20216;-67
2021/04/10 04:08:17;;;;;;;15.23;9.00;;;6.00;75.80;;;;;;5041563;28;20233;-67
2021/04/10 04:10:43;;;;;;;15.07;8.70;;;6.00;76.10;;;;;;5041695;28;20320;-68
2021/04/10 04:13:10;;;;;;;16.87;8.20;;;6.00;76.30;;;;;;5041826;28;20226;-69
2021/04/10 04:15:37;;;;;;;16.33;9.37;;;6.00;76.70;;;;;;5043286;28;20238;-69
2021/04/10 04:18:03;;;;;;;14.70;8.47;;;6.00;77.00;;;;;;5039021;28;20251;-69
2021/04/10 04:20:30;;;;;;;17.37;9.10;;;6.00;77.10;;;;;;5040890;28;20204;-69
2021/04/10 04:22:57;;;;;;;17.40;9.03;;;6.00;77.40;;;;;;5043407;28;20225;-69
2021/04/10 04:25:23;;;;;;;15.10;8.73;;;6.10;77.80;;;;;;5042420;28;20210;-69
2021/04/10 04:27:50;;;;;;;20.80;9.40;;;6.10;77.90;;;;;;5041683;28;20627;-69
2021/04/10 04:30:19;;;;;;;19.40;9.07;;;6.10;78.10;;;;;;5042966;28;20265;-69
2021/04/10 04:32:46;;;;;;;14.50;8.53;;;6.10;78.30;;;;;;5042619;28;20894;-68
2021/04/10 04:35:13;;;;;;;16.27;9.20;;;6.10;78.50;;;;;;5042334;28;20264;-69
2021/04/10 04:37:40;;;;;;;17.90;9.50;;;6.10;78.70;;;;;;5042317;28;20940;-69
2021/04/10 04:40:08;;;;;;;16.53;8.30;;;6.20;78.80;;;;;;5041899;28;20294;-69
2021/04/10 04:42:35;;;;;;;13.77;8.57;;;6.20;79.00;;;;;;5040788;28;20266;-69
2021/04/10 04:45:01;;;;;;;14.13;8.30;;;6.20;78.90;;;;;;5041490;28;20296;-69
2021/04/10 04:47:28;;;;;;;14.13;8.60;;;6.30;79.20;;;;;;5043573;28;20209;-69
2021/04/10 04:49:55;;;;;;;15.70;9.10;;;6.40;79.10;;;;;;5042521;28;20210;-70
2021/04/10 04:52:21;;;;;;;13.93;8.97;;;6.40;79.20;;;;;;5040236;28;20255;-68
2021/04/10 04:54:47;;;;;;;15.67;8.80;;;6.50;79.20;;;;;;5040364;28;20221;-68
2021/04/10 04:57:14;;;;;;;14.57;9.43;;;6.60;78.80;;;;;;5041630;28;20228;-69
2021/04/10 04:59:40;;;;;;;19.07;8.60;;;6.80;78.80;;;;;;5038929;28;20206;-69
2021/04/10 05:02:06;;;;;;;15.43;9.37;;;6.90;78.40;;;;;;5041007;28;20280;-69
2021/04/10 05:04:33;;;;;;;16.83;9.60;;;7.00;78.00;;;;;;5041921;28;20307;-69
2021/04/10 05:07:00;;;;;;;13.40;8.17;;;7.10;77.40;;;;;;5041142;28;20296;-69
2021/04/10 05:09:26;;;;;;;18.80;9.87;;;7.20;77.00;;;;;;5042016;28;20202;-70
2021/04/10 05:11:53;;;;;;;15.83;9.20;;;7.40;76.60;;;;;;5041748;28;20271;-67
2021/04/10 05:14:19;;;;;;;15.40;9.07;;;7.50;76.20;;;;;;5042807;28;20579;-70
2021/04/10 05:16:45;;;;;;;15.90;9.00;;;7.60;75.60;;;;;;5043295;28;20242;-68
2021/04/10 05:19:12;;;;;;;17.50;9.23;;;7.80;75.30;;;;;;5047705;28;20213;-69
2021/04/10 05:21:38;;;;;;;16.07;9.00;;;7.80;74.00;;;;;;5044924;28;20209;-69
2021/04/10 05:24:07;;;;;;;20.90;9.60;;;7.90;73.80;;;;;;5046856;28;20224;-71
2021/04/10 05:26:34;;;;;;;16.53;9.73;;;7.90;73.00;;;;;;5047991;28;20300;-71
2021/04/10 05:29:00;;;;;;;17.57;9.63;;;7.90;72.80;;;;;;5048796;28;20670;-71
2021/04/10 05:31:29;;;;;;;16.57;9.23;;;7.90;72.20;;;;;;5048202;28;20626;-71
2021/04/10 05:33:55;;;;;;;16.73;9.73;;;8.00;72.30;;;;;;5049480;28;20333;-71
2021/04/10 05:36:22;;;;;;;18.73;8.93;;;8.00;72.00;;;;;;5047760;28;20249;-71
2021/04/10 05:38:48;;;;;;;18.60;9.13;;;8.00;71.60;;;;;;5046508;28;20329;-71
2021/04/10 05:41:17;;;;;;;17.13;9.60;;;8.10;71.60;;;;;;5046281;28;20296;-68
2021/04/10 05:43:43;;;;;;;17.20;9.63;;;8.20;71.80;;;;;;5045859;28;20209;-69
2021/04/10 05:46:10;;;;;;;18.53;9.77;;;8.30;71.40;;;;;;5048253;28;20202;-70
2021/04/10 05:48:37;;;;;;;15.70;9.03;;;8.30;70.70;;;;;;5043598;28;20207;-71
2021/04/10 05:51:03;;;;;;;19.83;9.77;;;8.40;70.80;;;;;;5042223;28;20224;-71
2021/04/10 05:53:30;;;;;;;15.93;9.50;;;8.50;70.40;;;;;;5043333;28;20265;-71
2021/04/10 05:55:56;;;;;;;17.90;9.90;;;8.60;70.10;;;;;;5042501;28;20313;-70
2021/04/10 05:58:23;;;;;;;16.73;9.40;;;8.60;69.60;;;;;;5041648;28;20293;-69
2021/04/10 06:00:50;;;;;;;19.40;10.20;;;8.70;69.40;;;;;;5041843;28;20198;-70
2021/04/10 06:03:16;;;;;;;16.30;9.70;;;8.70;69.30;;;;;;5043342;28;20194;-70
2021/04/10 06:05:45;;;;;;;14.67;9.40;;;8.70;69.00;;;;;;5042435;28;20828;-71
2021/04/10 06:08:11;;;;;;;18.07;9.83;;;8.70;69.70;;;;;;5040757;28;20217;-70
2021/04/10 06:10:37;;;;;;;16.20;9.47;;;8.80;69.10;;;;;;5043154;28;20216;-71
2021/04/10 06:13:04;;;;;;;16.80;9.30;;;8.90;68.90;;;;;;5040418;28;20435;-70
2021/04/10 06:15:31;;;;;;;18.27;9.23;;;8.90;68.60;;;;;;5041272;28;20624;-70
2021/04/10 06:17:57;;;;;;;16.33;9.10;;;9.00;68.50;;;;;;5040762;28;20228;-70
2021/04/10 06:20:24;;;;;;;17.03;10.13;;;9.00;68.20;;;;;;5041224;28;20686;-71
2021/04/10 06:22:51;;;;;;;18.87;10.07;;;9.00;68.20;;;;;;5045435;28;20207;-71
2021/04/10 06:25:17;;;;;;;17.73;9.33;;;9.00;68.20;;;;;;5041749;28;20221;-71
2021/04/10 06:27:44;;;;;;;19.27;10.17;;;9.10;68.30;;;;;;5040573;28;20206;-71
2021/04/10 06:30:11;;;;;;;14.80;9.30;;;9.10;68.20;;;;;;5039853;28;20202;-71
2021/04/10 06:32:38;;;;;;;17.60;9.67;;;9.20;69.00;;;;;;5040920;28;20296;-71
2021/04/10 06:35:06;;;;;;;20.30;10.20;;;9.30;68.90;;;;;;5040953;28;20239;-74
2021/04/10 06:37:32;;;;;;;17.87;9.73;;;9.40;68.70;;;;;;5040074;28;20207;-72
2021/04/10 06:39:59;;;;;;;15.33;9.23;;;9.60;68.20;;;;;;5039885;28;20582;-70
2021/04/10 06:42:25;;;;;;;18.70;10.47;;;9.70;67.80;;;;;;5037753;28;20217;-71
2021/04/10 06:44:53;;;;;;;16.87;9.67;;;9.80;67.30;;;;;;5040097;28;20205;-72
2021/04/10 06:47:22;;;;;;;18.50;9.07;;;9.80;67.10;;;;;;5041186;28;20216;-72
2021/04/10 06:49:51;;;;;;;17.30;10.67;;;9.90;66.70;;;;;;5038543;28;20692;-71
2021/04/10 06:52:19;;;;;;;18.30;10.37;;;10.00;65.10;;;;;;5039513;28;20213;-70
2021/04/10 06:54:48;;;;;;;21.07;10.30;;;10.00;65.20;;;;;;5038414;28;20250;-71
2021/04/10 06:57:17;;;;;;;17.40;10.40;;;10.20;64.50;;;;;;5039031;28;20571;-70
2021/04/10 06:59:51;;;;;;;16.67;10.27;;;10.30;64.30;;;;;;5039987;28;20211;-71
2021/04/10 07:02:18;;;;;;;17.30;9.60;;;10.50;63.80;;;;;;5042681;28;20198;-71
2021/04/10 07:04:45;;;;;;;18.73;10.00;;;10.60;63.60;;;;;;5035240;28;20202;-72
2021/04/10 07:07:12;;;;;;;16.03;10.00;;;10.70;63.00;;;;;;5038497;28;20214;-72
2021/04/10 07:09:39;;;;;;;17.47;10.43;;;10.80;62.30;;;;;;5039680;28;20655;-72
2021/04/10 07:12:07;;;;;;;14.07;9.00;;;10.90;61.70;;;;;;5038837;28;20249;-71
2021/04/10 07:14:33;;;;;;;21.47;11.00;;;11.00;61.60;;;;;;5037325;28;20233;-71
2021/04/10 07:17:00;;;;;;;17.17;10.50;;;11.20;61.00;;;;;;5039794;28;20236;-71
2021/04/10 07:19:27;;;;;;;19.30;10.23;;;11.40;60.80;;;;;;5038169;28;20210;-71
2021/04/10 07:22:08;;;;;;;17.90;10.83;;;11.50;60.40;;;;;;5038388;28;20237;-71
2021/04/10 07:24:43;;;;;;;16.43;9.53;;;11.70;59.60;;;;;;5039814;28;20582;-71
2021/04/10 07:27:13;;;;;;;19.23;9.97;;;11.80;59.30;;;;;;5038595;28;20199;-70
2021/04/10 07:29:42;;;;;;;18.53;10.60;;;12.00;58.90;;;;;;5037480;28;20202;-70
2021/04/10 07:32:27;;;;;;;20.40;11.03;;;12.20;58.60;;;;;;5039750;28;20215;-70
2021/04/10 07:34:54;;;;;;;15.57;10.10;;;12.40;57.90;;;;;;5037979;28;20218;-70
2021/04/10 07:37:35;;;;;;;17.03;10.10;;;12.60;57.20;;;;;;5037936;28;20213;-70
2021/04/10 07:40:03;;;;;;;20.80;10.50;;;12.70;56.90;;;;;;5039568;28;20213;-70
2021/04/10 07:42:31;;;;;;;20.43;11.47;;;12.80;56.50;;;;;;5036697;28;20209;-72
2021/04/10 07:44:57;;;;;;;18.30;10.03;;;12.80;56.50;;;;;;5037726;28;20206;-69
2021/04/10 07:47:35;;;;;;;19.23;11.00;;;12.90;56.20;;;;;;5040517;28;20202;-72
2021/04/10 07:50:18;;;;;;;17.47;10.23;;;12.90;55.80;;;;;;5039589;28;20263;-71
2021/04/10 07:52:44;;;;;;;17.73;11.57;;;13.10;55.70;;;;;;5043975;28;20329;-74
2021/04/10 07:55:34;;;;;;;19.23;11.23;;;13.30;55.30;;;;;;5040605;28;20280;-75
2021/04/10 07:58:28;;;;;;;21.73;11.37;;;13.50;55.10;;;;;;5039214;28;20224;-73
2021/04/10 08:00:57;;;;;;;17.40;10.20;;;13.60;54.40;;;;;;5041094;28;20202;-74
2021/04/10 08:03:30;;;;;;;19.50;10.00;;;13.70;54.00;;;;;;5041760;28;20206;-76
2021/04/10 08:06:11;;;;;;;16.07;10.80;;;13.70;53.80;;;;;;5045507;28;20202;-74
2021/04/10 08:08:46;;;;;;;16.87;10.33;;;13.80;53.90;;;;;;5040453;28;20284;-77
2021/04/10 08:11:15;;;;;;;21.07;10.73;;;14.00;53.30;;;;;;5039194;28;20213;-76
2021/04/10 08:13:53;;;;;;;16.27;10.40;;;14.20;53.00;;;;;;5040800;28;20291;-74
2021/04/10 08:16:22;;;;;;;19.07;10.20;;;14.40;52.30;;;;;;5040422;28;20261;-77
2021/04/10 08:18:50;;;;;;;16.17;10.73;;;14.40;51.90;;;;;;5041668;28;20228;-75
2021/04/10 08:21:18;;;;;;;15.27;10.80;;;14.50;51.60;;;;;;5040677;28;20210;-76
2021/04/10 08:23:45;;;;;;;19.47;10.57;;;14.50;51.10;;;;;;5040520;28;20206;-76
2021/04/10 08:26:12;;;;;;;16.40;10.23;;;14.70;51.40;;;;;;5038278;28;20198;-75
2021/04/10 08:28:39;;;;;;;16.67;9.93;;;14.80;50.90;;;;;;5042549;28;20207;-75
2021/04/10 08:31:06;;;;;;;17.23;10.77;;;14.90;50.60;;;;;;5041208;28;20581;-75
2021/04/10 08:33:34;;;;;;;16.93;10.97;;;15.10;50.20;;;;;;5039943;28;20236;-75
2021/04/10 08:36:05;;;;;;;14.50;10.00;;;15.20;50.20;;;;;;5037880;28;20213;-71
2021/04/10 08:38:32;;;;;;;14.67;10.03;;;15.40;50.00;;;;;;5040903;28;20206;-71
2021/04/10 08:41:02;;;;;;;16.13;10.20;;;15.50;49.50;;;;;;5042604;28;20254;-71
2021/04/10 08:43:30;;;;;;;17.40;10.33;;;15.70;49.10;;;;;;5041475;28;20256;-72
2021/04/10 08:45:59;;;;;;;16.37;10.13;;;16.00;49.10;;;;;;5043614;28;20221;-73
2021/04/10 08:48:28;;;;;;;16.77;11.00;;;16.40;48.80;;;;;;5039978;28;20210;-73
2021/04/10 08:50:57;;;;;;;16.13;10.23;;;16.70;48.30;;;;;;5038313;28;20232;-72
2021/04/10 08:53:26;;;;;;;16.60;10.50;;;17.00;47.50;;;;;;5042985;28;20772;-72
2021/04/10 08:55:54;;;;;;;15.50;10.27;;;17.30;46.70;;;;;;5042927;28;21969;-72
2021/04/10 08:58:23;;;;;;;14.57;9.93;;;17.40;46.50;;;;;;5041402;28;20220;-73
2021/04/10 09:00:54;;;;;;;17.27;10.77;;;17.50;45.70;;;;;;5039673;28;20205;-71
2021/04/10 09:03:21;;;;;;;16.63;10.93;;;17.60;45.90;;;;;;5038353;28;20222;-72
2021/04/10 09:05:49;;;;;;;17.10;10.33;;;17.60;45.10;;;;;;5041493;28;20211;-72
2021/04/10 09:08:26;;;;;;;16.60;10.33;;;17.80;44.70;;;;;;5042128;28;20210;-72
2021/04/10 09:10:58;;;;;;;14.93;10.13;;;18.00;44.30;;;;;;5040434;28;20213;-73
2021/04/10 09:13:32;;;;;;;16.97;10.23;;;18.10;44.00;;;;;;5039308;28;20305;-73
2021/04/10 09:16:31;;;;;;;17.38;10.30;;;18.20;44.00;;;;;;5038961;28;20674;-72
2021/04/10 09:19:01;;;;;;;14.47;10.20;;;18.50;43.80;;;;;;5039816;28;20965;-72
2021/04/10 09:21:40;;;;;;;18.63;10.32;;;18.60;43.00;;;;;;5039681;28;20263;-72
2021/04/10 09:24:20;;;;;;;18.27;10.27;;;18.60;42.70;;;;;;5038718;28;20200;-73
2021/04/10 09:27:02;;;;;;;16.57;10.17;;;18.70;42.80;;;;;;5037872;28;20258;-73
2021/04/10 09:29:30;;;;;;;16.87;10.37;;;18.80;42.60;;;;;;5040156;28;20198;-72
2021/04/10 09:31:59;;;;;;;19.10;10.77;;;18.90;42.20;;;;;;5041609;28;20208;-72
2021/04/10 09:34:53;;;;;;;14.40;9.73;;;19.00;42.30;;;;;;5041820;28;20247;-72
2021/04/10 09:37:45;;;;;;;15.63;9.35;;;19.10;42.20;;;;;;5041177;28;20202;-73
2021/04/10 09:40:17;;;;;;;15.27;10.10;;;19.50;41.60;;;;;;5041182;28;20218;-72
2021/04/10 09:42:47;;;;;;;17.80;9.70;;;19.70;41.20;;;;;;5039658;28;20237;-73
2021/04/10 09:45:16;;;;;;;17.10;11.10;;;19.90;41.10;;;;;;5040471;28;20242;-73
2021/04/10 09:48:13;;;;;;;18.67;10.93;;;19.90;40.10;;;;;;5039893;28;20198;-73
2021/04/10 09:50:43;;;;;;;15.43;10.68;;;20.10;40.60;;;;;;5040181;28;20580;-73
2021/04/10 09:53:12;;;;;;;16.58;10.57;;;20.20;39.70;;;;;;5040001;28;20220;-73
2021/04/10 09:55:41;;;;;;;16.70;10.82;;;20.30;39.70;;;;;;5039387;28;20216;-73
2021/04/10 09:58:09;;;;;;;18.38;11.18;;;20.40;39.50;;;;;;5039212;28;20255;-73
2021/04/10 10:00:37;;;;;;;16.48;10.10;;;20.50;39.70;;;;;;5041293;28;20738;-73
2021/04/10 10:03:07;;;;;;;16.50;9.82;;;20.70;39.20;;;;;;5043643;28;20214;-72
2021/04/10 10:05:35;;;;;;;15.88;10.02;;;20.90;38.90;;;;;;5041499;28;20636;-72
2021/04/10 10:08:04;;;;;;;16.48;10.57;;;21.10;38.90;;;;;;5040490;28;20214;-72
2021/04/10 10:10:31;;;;;;;15.07;9.90;;;21.40;38.60;;;;;;5041976;28;20305;-72
2021/04/10 10:13:01;;;;;;;17.27;10.35;;;21.70;38.00;;;;;;5041483;28;20206;-72
2021/04/10 10:15:28;;;;;;;17.65;10.63;;;21.60;36.80;;;;;;5037628;28;20704;-72
2021/04/10 10:17:54;;;;;;;14.50;10.13;;;21.50;37.20;;;;;;5037323;28;20299;-73
2021/04/10 10:20:21;;;;;;;16.23;10.45;;;21.40;37.00;;;;;;5040604;28;20352;-73
2021/04/10 10:22:48;;;;;;;14.48;10.43;;;21.40;37.80;;;;;;5040357;28;20297;-72
2021/04/10 10:25:18;;;;;;;13.45;10.10;;;21.80;37.30;;;;;;5038360;28;20256;-73
2021/04/10 10:27:46;;;;;;;15.82;10.23;;;22.20;36.90;;;;;;5040167;28;21528;-73
2021/04/10 10:30:14;;;;;;;15.70;10.55;;;22.60;36.00;;;;;;5038085;28;20213;-72
2021/04/10 10:32:44;;;;;;;17.38;11.18;;;22.90;35.60;;;;;;5041810;28;20215;-71
2021/04/10 10:35:11;;;;;;;16.10;11.52;;;23.10;35.60;;;;;;5040468;28;20267;-71
2021/04/10 10:37:38;;;;;;;15.55;11.52;;;23.10;34.70;;;;;;5039088;28;20670;-73
2021/04/10 10:40:06;;;;;;;16.30;11.95;;;23.00;35.60;;;;;;5037547;28;20216;-72
2021/04/10 10:42:33;;;;;;;18.48;11.65;;;23.00;35.30;;;;;;5040009;28;20290;-72
2021/04/10 10:45:00;;;;;;;16.15;11.52;;;23.20;35.20;;;;;;5039855;28;20202;-72
2021/04/10 10:47:26;;;;;;;17.70;11.57;;;23.30;34.90;;;;;;5040318;28;20213;-71
2021/04/10 10:49:54;;;;;;;15.00;11.50;;;23.50;35.20;;;;;;5039183;28;21066;-71
2021/04/10 10:52:20;;;;;;;16.00;11.45;;;23.70;34.30;;;;;;5037540;28;20775;-70
2021/04/10 10:54:48;;;;;;;18.02;12.40;;;23.40;33.40;;;;;;5038101;28;20317;-71
2021/04/10 10:57:16;;;;;;;14.88;11.00;;;23.10;34.10;;;;;;5039647;28;20241;-70
2021/04/10 10:59:45;;;;;;;13.27;10.10;;;23.00;34.40;;;;;;5039721;28;20302;-70
2021/04/10 11:02:19;;;;;;;17.23;10.80;;;22.90;34.50;;;;;;5039111;28;20234;-71
2021/04/10 11:04:47;;;;;;;16.80;10.23;;;22.70;34.70;;;;;;5039554;28;20198;-72
2021/04/10 11:07:15;;;;;;;13.82;10.68;;;22.50;34.00;;;;;;5038320;28;20206;-71
2021/04/10 11:09:43;;;;;;;15.20;10.43;;;22.20;33.70;;;;;;5039570;28;20210;-72
2021/04/10 11:12:12;;;;;;;15.57;10.10;;;21.80;33.70;;;;;;5039948;28;20221;-72
2021/04/10 11:14:42;;;;;;;14.32;10.15;;;21.40;34.30;;;;;;5037709;28;20225;-72
2021/04/10 11:17:10;;;;;;;12.63;10.35;;;21.10;34.50;;;;;;5039862;28;20699;-71
2021/04/10 11:19:38;;;;;;;13.18;9.55;;;20.80;34.70;;;;;;5039387;28;20288;-72
2021/04/10 11:22:06;;;;;;;13.55;10.20;;;20.50;34.50;;;;;;5038178;28;20210;-71
2021/04/10 11:24:37;;;;;;;14.30;10.73;;;20.20;34.80;;;;;;5039192;28;20206;-73
2021/04/10 11:27:11;;;;;;;15.35;10.65;;;19.90;35.40;;;;;;5037289;28;20289;-73
2021/04/10 11:29:38;;;;;;;14.27;10.68;;;19.80;35.50;;;;;;5037213;28;20201;-71
2021/04/10 11:32:17;;;;;;;13.93;10.38;;;19.70;35.70;;;;;;5054866;28;20238;-71
2021/04/10 11:34:53;;;;;;;13.25;10.50;;;19.40;35.90;;;;;;5037204;28;20305;-72
2021/04/10 11:37:21;;;;;;;17.38;10.20;;;19.30;36.30;;;;;;5038257;28;20266;-72
2021/04/10 11:39:53;;;;;;;13.50;10.15;;;19.30;36.30;;;;;;5038438;28;20222;-72
2021/04/10 11:42:24;;;;;;;13.50;9.88;;;19.60;36.60;;;;;;5040205;28;20210;-71
2021/04/10 11:44:51;;;;;;;14.43;10.13;;;19.90;36.20;;;;;;5039232;28;20210;-71
2021/04/10 11:47:23;;;;;;;12.23;9.38;;;20.10;35.80;;;;;;5038339;28;20205;-73
2021/04/10 11:49:50;;;;;;;16.33;10.35;;;20.30;35.60;;;;;;5035411;28;20216;-70
2021/04/10 11:52:17;;;;;;;12.50;9.82;;;20.40;35.40;;;;;;5035195;28;20553;-71
2021/04/10 11:54:44;;;;;;;12.90;9.32;;;20.20;35.00;;;;;;5037590;28;20244;-70
2021/04/10 11:57:29;;;;;;;14.68;10.55;;;20.00;35.10;;;;;;5038378;28;20212;-71
2021/04/10 12:00:09;;;;;;;14.80;8.90;;;19.80;35.20;;;;;;5035557;28;20208;-72
2021/04/10 12:02:38;;;;;;;11.65;9.38;;;19.60;35.60;;;;;;5037541;28;20248;-71
2021/04/10 12:05:24;;;;;;;14.00;9.68;;;19.50;35.90;;;;;;5038412;28;20208;-71
2021/04/10 12:08:14;;;;;;;12.88;9.43;;;19.40;36.30;;;;;;5039348;28;20693;-71
2021/04/10 12:10:48;;;;;;;11.93;9.75;;;19.30;36.30;;;;;;5038486;28;20559;-73
2021/04/10 12:13:16;;;;;;;13.68;9.15;;;19.30;36.30;;;;;;5042916;28;20574;-72
2021/04/10 12:15:42;;;;;;;14.73;10.00;;;19.30;36.60;;;;;;5042097;28;20838;-73
2021/04/10 12:18:11;;;;;;;9.93;8.70;;;19.30;36.30;;;;;;5041787;28;20210;-73
2021/04/10 12:20:38;;;;;;;13.52;8.70;;;19.20;36.40;;;;;;5043571;28;20206;-71
2021/04/10 12:23:06;;;;;;;10.93;8.82;;;19.10;36.50;;;;;;5040502;28;20206;-73
2021/04/10 12:25:35;;;;;;;15.18;9.65;;;19.00;36.30;;;;;;5041509;28;20289;-74
2021/04/10 12:28:01;;;;;;;10.00;8.23;;;18.80;36.60;;;;;;5044471;28;20670;-74
2021/04/10 12:30:28;;;;;;;14.20;9.63;;;18.60;37.10;;;;;;5044564;28;20206;-75
2021/04/10 12:32:54;;;;;;;13.20;9.10;;;18.50;37.50;;;;;;5047165;28;20214;-75
2021/04/10 12:35:24;;;;;;;12.45;9.23;;;18.40;37.50;;;;;;5044122;28;20735;-77
2021/04/10 12:37:51;;;;;;;12.38;9.25;;;18.30;37.60;;;;;;5044616;28;20309;-74
2021/04/10 12:40:18;;;;;;;11.13;8.68;;;18.00;37.50;;;;;;5043162;28;20216;-77
2021/04/10 12:42:44;;;;;;;14.57;8.73;;;17.80;38.10;;;;;;5044191;28;20286;-76
2021/04/10 12:45:11;;;;;;;10.18;7.93;;;17.70;38.30;;;;;;5042633;28;20222;-75
2021/04/10 12:47:38;;;;;;;10.53;8.57;;;17.60;38.40;;;;;;5044843;28;20572;-73